createdAt,value
2018-02-24T00:00:20.711Z,11.00
2018-02-24T00:01:20.689Z,12.40
2018-02-24T00:02:20.655Z,12.20
2018-02-24T00:03:20.622Z,13.10
2018-02-24T00:04:20.594Z,11.40
2018-02-24T00:05:20.561Z,11.40
2018-02-24T00:06:20.531Z,11.70
2018-02-24T00:07:20.499Z,11.60
2018-02-24T00:08:20.475Z,12.50
2018-02-24T00:09:20.443Z,11.70
2018-02-24T00:10:20.410Z,12.30
2018-02-24T00:11:20.381Z,12.60
2018-02-24T00:12:20.364Z,11.90
2018-02-24T00:13:20.333Z,11.80
2018-02-24T00:14:20.293Z,11.60
2018-02-24T00:15:20.262Z,11.10
2018-02-24T00:16:20.232Z,11.80
2018-02-24T00:17:20.200Z,12.10
2018-02-24T00:18:20.169Z,12.50
2018-02-24T00:19:20.143Z,11.50
2018-02-24T00:20:20.112Z,11.60
2018-02-24T00:21:20.081Z,12.70
2018-02-24T00:22:20.060Z,11.50
2018-02-24T00:23:20.022Z,13.10
2018-02-24T00:24:19.990Z,12.90
2018-02-24T00:25:19.957Z,11.50
2018-02-24T00:26:19.927Z,11.70
2018-02-24T00:27:19.896Z,12.60
2018-02-24T00:28:19.869Z,13.10
2018-02-24T00:29:19.840Z,12.20
2018-02-24T00:30:19.807Z,12.40
2018-02-24T00:31:19.782Z,11.90
2018-02-24T00:32:19.748Z,12.70
2018-02-24T00:33:19.721Z,12.30
2018-02-24T00:34:19.689Z,11.20
2018-02-24T00:35:19.660Z,13.10
2018-02-24T00:36:19.628Z,12.90
2018-02-24T00:37:19.597Z,12.80
2018-02-24T00:38:19.566Z,12.60
2018-02-24T00:39:19.537Z,11.20
2018-02-24T00:40:19.510Z,12.90
2018-02-24T00:41:19.474Z,11.90
2018-02-24T00:42:19.448Z,13.30
2018-02-24T00:43:19.421Z,13.40
2018-02-24T00:44:19.384Z,12.90
2018-02-24T00:45:19.352Z,12.30
2018-02-24T00:46:19.324Z,13.70
2018-02-24T00:47:19.310Z,12.90
2018-02-24T00:48:19.270Z,13.20
2018-02-24T00:49:19.232Z,12.50
2018-02-24T00:50:19.207Z,12.70
2018-02-24T00:51:19.173Z,13.50
2018-02-24T00:52:19.144Z,12.80
2018-02-24T00:53:19.112Z,12.70
2018-02-24T00:54:19.086Z,12.50
2018-02-24T00:55:19.051Z,12.30
2018-02-24T00:56:19.023Z,12.90
2018-02-24T00:57:18.991Z,12.00
2018-02-24T00:58:18.958Z,12.60
2018-02-24T00:59:18.931Z,11.80
2018-02-24T01:00:18.900Z,12.90
2018-02-24T01:01:18.873Z,12.60
2018-02-24T01:02:18.838Z,13.00
2018-02-24T01:03:18.812Z,12.70
2018-02-24T01:04:18.785Z,12.80
2018-02-24T01:05:18.752Z,12.20
2018-02-24T01:06:18.720Z,12.30
2018-02-24T01:07:18.689Z,11.60
2018-02-24T01:08:18.666Z,12.50
2018-02-24T01:09:18.628Z,12.10
2018-02-24T01:10:18.596Z,12.00
2018-02-24T01:11:18.563Z,13.30
2018-02-24T01:12:18.538Z,12.50
2018-02-24T01:13:18.506Z,12.60
2018-02-24T01:14:18.477Z,12.90
2018-02-24T01:15:18.447Z,12.70
2018-02-24T01:16:18.415Z,13.00
2018-02-24T01:17:18.387Z,12.80
2018-02-24T01:18:18.354Z,11.40
2018-02-24T01:19:18.324Z,12.90
2018-02-24T01:20:18.293Z,13.10
2018-02-24T01:21:18.271Z,12.30
2018-02-24T01:22:18.234Z,13.40
2018-02-24T01:23:18.204Z,12.70
2018-02-24T01:24:18.171Z,13.30
2018-02-24T01:25:18.139Z,13.40
2018-02-24T01:26:18.134Z,12.80
2018-02-24T01:27:18.078Z,12.90
2018-02-24T01:28:18.048Z,14.00
2018-02-24T01:29:18.026Z,12.00
2018-02-24T01:30:17.987Z,13.60
2018-02-24T01:31:17.959Z,13.00
2018-02-24T01:32:17.948Z,12.50
2018-02-24T01:33:17.897Z,13.70
2018-02-24T01:34:17.869Z,12.00
2018-02-24T01:35:17.842Z,12.50
2018-02-24T01:36:17.812Z,12.30
2018-02-24T01:37:17.776Z,12.80
2018-02-24T01:38:17.747Z,11.90
2018-02-24T01:39:17.714Z,12.00
2018-02-24T01:40:17.686Z,12.60
2018-02-24T01:41:17.656Z,13.90
2018-02-24T01:42:17.626Z,13.30
2018-02-24T01:43:17.596Z,12.90
2018-02-24T01:44:17.560Z,13.00
2018-02-24T01:45:17.533Z,12.20
2018-02-24T01:46:17.506Z,13.10
2018-02-24T01:47:17.473Z,13.70
2018-02-24T01:48:17.445Z,11.80
2018-02-24T01:49:17.412Z,13.50
2018-02-24T01:50:17.387Z,11.70
2018-02-24T01:51:17.353Z,12.10
2018-02-24T01:52:17.320Z,12.20
2018-02-24T01:53:17.291Z,12.90
2018-02-24T01:54:17.267Z,12.80
2018-02-24T01:55:17.224Z,12.10
2018-02-24T01:56:17.200Z,11.70
2018-02-24T01:57:17.168Z,11.80
2018-02-24T01:58:17.138Z,13.20
2018-02-24T01:59:17.109Z,12.80
2018-02-24T02:00:17.074Z,12.10
2018-02-24T02:01:17.045Z,12.90
2018-02-24T02:02:17.017Z,13.70
2018-02-24T02:03:16.983Z,12.70
2018-02-24T02:04:16.957Z,13.00
2018-02-24T02:05:16.937Z,12.60
2018-02-24T02:06:16.892Z,14.40
2018-02-24T02:07:16.865Z,12.40
2018-02-24T02:08:16.828Z,12.50
2018-02-24T02:09:16.807Z,12.10
2018-02-24T02:10:16.772Z,12.80
2018-02-24T02:11:16.742Z,12.10
2018-02-24T02:12:16.712Z,13.00
2018-02-24T02:13:16.684Z,12.30
2018-02-24T02:14:16.655Z,12.30
2018-02-24T02:15:16.620Z,13.40
2018-02-24T02:16:16.590Z,13.00
2018-02-24T02:17:16.558Z,12.20
2018-02-24T02:18:16.529Z,12.70
2018-02-24T02:19:16.505Z,12.20
2018-02-24T02:20:16.469Z,12.20
2018-02-24T02:21:16.436Z,12.60
2018-02-24T02:22:16.408Z,12.80
2018-02-24T02:23:16.375Z,12.50
2018-02-24T02:24:16.357Z,12.50
2018-02-24T02:25:16.309Z,12.70
2018-02-24T02:26:16.286Z,13.30
2018-02-24T02:27:16.255Z,13.10
2018-02-24T02:28:16.224Z,13.10
2018-02-24T02:29:16.193Z,13.70
2018-02-24T02:30:16.164Z,12.90
2018-02-24T02:31:16.129Z,13.10
2018-02-24T02:32:16.113Z,12.30
2018-02-24T02:33:16.071Z,13.10
2018-02-24T02:34:16.045Z,12.90
2018-02-24T02:35:16.016Z,12.90
2018-02-24T02:36:16.011Z,12.60
2018-02-24T02:37:15.975Z,12.20
2018-02-24T02:38:15.912Z,12.70
2018-02-24T02:39:15.887Z,12.50
2018-02-24T02:40:15.859Z,12.90
2018-02-24T02:41:15.831Z,14.00
2018-02-24T02:42:15.796Z,14.60
2018-02-24T02:43:15.773Z,12.70
2018-02-24T02:44:15.730Z,12.20
2018-02-24T02:45:15.699Z,11.70
2018-02-24T02:46:15.675Z,12.90
2018-02-24T02:47:15.642Z,11.80
2018-02-24T02:48:15.615Z,13.30
2018-02-24T02:49:15.588Z,12.70
2018-02-24T02:50:15.555Z,13.80
2018-02-24T02:51:15.533Z,13.10
2018-02-24T02:52:15.491Z,13.60
2018-02-24T02:53:15.455Z,13.90
2018-02-24T02:54:15.430Z,13.20
2018-02-24T02:55:15.401Z,14.40
2018-02-24T02:56:15.367Z,13.00
2018-02-24T02:57:15.337Z,12.80
2018-02-24T02:58:15.304Z,13.00
2018-02-24T02:59:15.274Z,13.40
2018-02-24T03:00:15.248Z,13.10
2018-02-24T03:01:15.216Z,12.60
2018-02-24T03:02:15.184Z,12.80
2018-02-24T03:03:15.150Z,12.60
2018-02-24T03:04:15.126Z,11.80
2018-02-24T03:05:15.106Z,13.30
2018-02-24T03:06:15.060Z,13.10
2018-02-24T03:07:15.028Z,13.20
2018-02-24T03:08:15.056Z,12.60
2018-02-24T03:09:14.967Z,12.60
2018-02-24T03:10:14.941Z,12.60
2018-02-24T03:11:14.909Z,13.20
2018-02-24T03:12:14.888Z,13.20
2018-02-24T03:13:14.848Z,12.90
2018-02-24T03:14:14.816Z,13.00
2018-02-24T03:15:14.783Z,12.60
2018-02-24T03:16:14.759Z,13.30
2018-02-24T03:17:14.771Z,11.80
2018-02-24T03:18:14.687Z,13.30
2018-02-24T03:19:14.665Z,13.40
2018-02-24T03:20:14.631Z,13.20
2018-02-24T03:21:14.596Z,13.60
2018-02-24T03:22:14.570Z,13.30
2018-02-24T03:23:14.541Z,13.70
2018-02-24T03:24:14.512Z,12.60
2018-02-24T03:25:14.510Z,12.50
2018-02-24T03:26:14.453Z,14.10
2018-02-24T03:27:14.424Z,13.40
2018-02-24T03:28:14.397Z,13.90
2018-02-24T03:29:14.356Z,12.40
2018-02-24T03:30:14.400Z,12.80
2018-02-24T03:31:14.299Z,13.00
2018-02-24T03:32:14.261Z,12.20
2018-02-24T03:33:14.233Z,13.40
2018-02-24T03:34:14.202Z,13.30
2018-02-24T03:35:14.174Z,13.50
2018-02-24T03:36:14.136Z,13.00
2018-02-24T03:37:14.113Z,13.90
2018-02-24T03:38:14.076Z,13.40
2018-02-24T03:39:14.048Z,12.80
2018-02-24T03:40:14.014Z,13.50
2018-02-24T03:41:13.987Z,13.50
2018-02-24T03:42:13.964Z,13.80
2018-02-24T03:43:13.926Z,13.50
2018-02-24T03:44:13.896Z,13.50
2018-02-24T03:45:13.866Z,13.80
2018-02-24T03:46:13.834Z,12.60
2018-02-24T03:47:13.803Z,13.20
2018-02-24T03:48:13.771Z,14.60
2018-02-24T03:49:13.741Z,13.30
2018-02-24T03:50:13.714Z,13.70
2018-02-24T03:51:13.681Z,13.80
2018-02-24T03:52:13.652Z,13.20
2018-02-24T03:53:13.622Z,12.90
2018-02-24T03:54:13.605Z,13.10
2018-02-24T03:55:13.555Z,12.90
2018-02-24T03:56:13.526Z,12.60
2018-02-24T03:57:13.495Z,14.50
2018-02-24T03:58:13.461Z,13.20
2018-02-24T03:59:13.433Z,13.30
2018-02-24T04:00:13.403Z,12.90
2018-02-24T04:01:13.371Z,13.20
2018-02-24T04:02:13.340Z,12.50
2018-02-24T04:03:13.312Z,13.50
2018-02-24T04:04:13.280Z,14.10
2018-02-24T04:05:13.341Z,12.90
2018-02-24T04:06:13.213Z,12.70
2018-02-24T04:07:13.183Z,14.40
2018-02-24T04:08:13.159Z,13.80
2018-02-24T04:09:13.228Z,12.70
2018-02-24T04:10:13.120Z,12.70
2018-02-24T04:11:13.065Z,13.40
2018-02-24T04:12:13.041Z,14.30
2018-02-24T04:13:13.003Z,14.10
2018-02-24T04:14:12.969Z,12.60
2018-02-24T04:15:12.941Z,13.30
2018-02-24T04:16:12.912Z,13.90
2018-02-24T04:17:12.878Z,12.90
2018-02-24T04:18:12.850Z,13.80
2018-02-24T04:19:12.817Z,13.10
2018-02-24T04:20:12.789Z,14.80
2018-02-24T04:21:12.756Z,13.60
2018-02-24T04:22:12.727Z,13.90
2018-02-24T04:23:12.697Z,13.10
2018-02-24T04:24:12.742Z,12.90
2018-02-24T04:25:12.632Z,13.70
2018-02-24T04:26:12.607Z,14.10
2018-02-24T04:27:12.572Z,13.60
2018-02-24T04:28:12.541Z,12.70
2018-02-24T04:29:12.512Z,14.30
2018-02-24T04:30:12.485Z,13.60
2018-02-24T04:31:12.449Z,13.10
2018-02-24T04:32:12.413Z,15.30
2018-02-24T04:33:12.388Z,13.00
2018-02-24T04:34:12.355Z,13.00
2018-02-24T04:35:12.331Z,13.90
2018-02-24T04:36:12.398Z,13.50
2018-02-24T04:37:12.265Z,15.00
2018-02-24T04:38:12.239Z,12.50
2018-02-24T04:39:12.291Z,14.50
2018-02-24T04:40:12.171Z,14.30
2018-02-24T04:41:12.138Z,12.80
2018-02-24T04:42:12.113Z,12.80
2018-02-24T04:43:12.078Z,13.10
2018-02-24T04:44:12.049Z,14.10
2018-02-24T04:45:12.018Z,14.70
2018-02-24T04:46:11.986Z,14.40
2018-02-24T04:47:11.954Z,14.90
2018-02-24T04:48:11.925Z,14.10
2018-02-24T04:49:11.907Z,14.50
2018-02-24T04:50:11.862Z,13.80
2018-02-24T04:51:11.832Z,14.40
2018-02-24T04:52:11.800Z,14.30
2018-02-24T04:53:11.771Z,14.10
2018-02-24T04:54:11.742Z,14.10
2018-02-24T04:55:11.705Z,13.60
2018-02-24T04:56:11.677Z,13.80
2018-02-24T04:57:11.648Z,13.50
2018-02-24T04:58:11.616Z,14.50
2018-02-24T04:59:11.583Z,13.60
2018-02-24T05:00:11.554Z,12.70
2018-02-24T05:01:11.531Z,14.10
2018-02-24T05:02:11.494Z,14.80
2018-02-24T05:03:11.462Z,15.00
2018-02-24T05:04:11.432Z,14.10
2018-02-24T05:05:11.397Z,14.10
2018-02-24T05:06:11.367Z,13.40
2018-02-24T05:07:11.334Z,14.50
2018-02-24T05:08:11.308Z,14.20
2018-02-24T05:09:11.277Z,15.50
2018-02-24T05:10:11.248Z,13.40
2018-02-24T05:11:11.215Z,14.70
2018-02-24T05:12:11.187Z,14.70
2018-02-24T05:13:11.153Z,13.70
2018-02-24T05:14:11.130Z,15.10
2018-02-24T05:15:11.095Z,15.10
2018-02-24T05:16:11.059Z,13.90
2018-02-24T05:17:11.037Z,14.90
2018-02-24T05:18:10.999Z,14.70
2018-02-24T05:19:10.972Z,14.40
2018-02-24T05:20:10.938Z,14.00
2018-02-24T05:21:10.907Z,14.00
2018-02-24T05:22:10.872Z,14.10
2018-02-24T05:23:10.845Z,15.00
2018-02-24T05:24:10.814Z,14.00
2018-02-24T05:25:10.780Z,13.50
2018-02-24T05:26:10.750Z,14.60
2018-02-24T05:27:10.718Z,15.00
2018-02-24T05:28:10.692Z,14.50
2018-02-24T05:29:10.663Z,14.20
2018-02-24T05:30:10.628Z,15.80
2018-02-24T05:31:10.597Z,14.40
2018-02-24T05:32:10.571Z,14.90
2018-02-24T05:33:10.529Z,14.20
2018-02-24T05:34:10.509Z,14.20
2018-02-24T05:35:10.473Z,13.50
2018-02-24T05:36:10.442Z,14.20
2018-02-24T05:37:10.412Z,13.70
2018-02-24T05:38:10.379Z,13.70
2018-02-24T05:39:10.351Z,16.10
2018-02-24T05:40:10.365Z,14.90
2018-02-24T05:41:10.288Z,15.10
2018-02-24T05:42:10.262Z,13.90
2018-02-24T05:43:10.233Z,15.00
2018-02-24T05:44:10.193Z,14.40
2018-02-24T05:45:10.166Z,15.30
2018-02-24T05:46:10.129Z,15.20
2018-02-24T05:47:10.105Z,13.80
2018-02-24T05:48:10.076Z,14.80
2018-02-24T05:49:10.039Z,14.60
2018-02-24T05:50:10.011Z,15.10
2018-02-24T05:51:09.984Z,14.90
2018-02-24T05:52:09.950Z,15.80
2018-02-24T05:53:09.916Z,14.10
2018-02-24T05:54:09.889Z,15.40
2018-02-24T05:55:09.856Z,14.60
2018-02-24T05:56:09.828Z,15.00
2018-02-24T05:57:09.809Z,15.00
2018-02-24T05:58:09.763Z,15.00
2018-02-24T05:59:09.735Z,14.40
2018-02-24T06:00:09.701Z,15.20
2018-02-24T06:01:09.673Z,16.20
2018-02-24T06:02:09.635Z,15.70
2018-02-24T06:03:09.607Z,14.70
2018-02-24T06:04:09.578Z,14.60
2018-02-24T06:05:09.554Z,15.70
2018-02-24T06:06:09.515Z,16.50
2018-02-24T06:07:09.486Z,14.20
2018-02-24T06:08:09.449Z,15.80
2018-02-24T06:09:09.420Z,15.90
2018-02-24T06:10:09.390Z,14.80
2018-02-24T06:11:09.360Z,14.70
2018-02-24T06:12:09.329Z,15.00
2018-02-24T06:13:09.307Z,15.50
2018-02-24T06:14:09.272Z,15.30
2018-02-24T06:15:09.236Z,15.80
2018-02-24T06:16:09.208Z,15.60
2018-02-24T06:17:09.172Z,14.80
2018-02-24T06:18:09.147Z,15.30
2018-02-24T06:19:09.112Z,14.40
2018-02-24T06:20:09.084Z,15.40
2018-02-24T06:21:09.050Z,15.70
2018-02-24T06:22:09.019Z,16.20
2018-02-24T06:23:08.991Z,14.80
2018-02-24T06:24:08.961Z,15.00
2018-02-24T06:25:08.936Z,15.30
2018-02-24T06:26:08.895Z,14.50
2018-02-24T06:27:08.862Z,16.00
2018-02-24T06:28:08.832Z,15.30
2018-02-24T06:29:08.803Z,16.10
2018-02-24T06:30:08.769Z,14.40
2018-02-24T06:31:08.749Z,15.00
2018-02-24T06:32:08.713Z,14.40
2018-02-24T06:33:08.679Z,14.80
2018-02-24T06:34:08.671Z,13.80
2018-02-24T06:35:08.617Z,15.30
2018-02-24T06:36:08.584Z,15.10
2018-02-24T06:37:08.562Z,15.70
2018-02-24T06:38:08.531Z,15.10
2018-02-24T06:39:08.511Z,14.20
2018-02-24T06:40:08.463Z,14.90
2018-02-24T06:41:08.430Z,15.20
2018-02-24T06:42:08.399Z,14.50
2018-02-24T06:43:08.370Z,14.10
2018-02-24T06:44:08.344Z,15.70
2018-02-24T06:45:08.307Z,15.30
2018-02-24T06:46:08.276Z,16.50
2018-02-24T06:47:08.246Z,15.40
2018-02-24T06:48:08.216Z,15.00
2018-02-24T06:49:08.179Z,15.20
2018-02-24T06:50:08.150Z,14.80
2018-02-24T06:51:08.123Z,14.20
2018-02-24T06:52:08.091Z,15.90
2018-02-24T06:53:08.061Z,15.60
2018-02-24T06:54:08.030Z,14.50
2018-02-24T06:55:08.004Z,15.70
2018-02-24T06:56:07.976Z,14.30
2018-02-24T06:57:07.972Z,14.10
2018-02-24T06:58:07.905Z,14.20
2018-02-24T06:59:07.874Z,15.10
2018-02-24T07:00:07.842Z,17.40
2018-02-24T07:01:07.812Z,15.70
2018-02-24T07:02:07.783Z,15.10
2018-02-24T07:03:07.746Z,15.20
2018-02-24T07:04:07.727Z,14.90
2018-02-24T07:05:07.683Z,14.80
2018-02-24T07:06:07.665Z,14.50
2018-02-24T07:07:07.625Z,14.00
2018-02-24T07:08:07.614Z,14.60
2018-02-24T07:09:07.564Z,15.80
2018-02-24T07:10:07.535Z,13.50
2018-02-24T07:11:07.505Z,13.30
2018-02-24T07:12:07.471Z,13.90
2018-02-24T07:13:07.438Z,14.50
2018-02-24T07:14:07.420Z,13.30
2018-02-24T07:15:07.389Z,13.10
2018-02-24T07:16:07.345Z,14.40
2018-02-24T07:17:07.318Z,13.00
2018-02-24T07:18:07.290Z,13.20
2018-02-24T07:19:07.257Z,13.10
2018-02-24T07:20:07.228Z,13.70
2018-02-24T07:21:07.195Z,15.30
2018-02-24T07:22:07.160Z,14.40
2018-02-24T07:23:07.135Z,14.80
2018-02-24T07:24:07.109Z,14.70
2018-02-24T07:25:07.073Z,14.20
2018-02-24T07:26:07.044Z,13.90
2018-02-24T07:27:07.009Z,13.00
2018-02-24T07:28:06.978Z,13.50
2018-02-24T07:29:06.952Z,12.40
2018-02-24T07:30:06.920Z,14.80
2018-02-24T07:31:06.891Z,13.40
2018-02-24T07:32:06.862Z,13.60
2018-02-24T07:33:06.830Z,13.20
2018-02-24T07:34:06.798Z,14.30
2018-02-24T07:35:06.776Z,13.30
2018-02-24T07:36:06.736Z,13.00
2018-02-24T07:37:06.715Z,12.90
2018-02-24T07:38:06.673Z,12.50
2018-02-24T07:39:06.645Z,12.20
2018-02-24T07:40:06.670Z,12.40
2018-02-24T07:41:06.583Z,12.60
2018-02-24T07:42:06.556Z,12.70
2018-02-24T07:43:06.563Z,13.40
2018-02-24T07:44:06.495Z,13.10
2018-02-24T07:45:06.507Z,12.50
2018-02-24T07:46:06.443Z,11.60
2018-02-24T07:47:06.403Z,12.80
2018-02-24T07:48:06.372Z,11.80
2018-02-24T07:49:06.340Z,11.30
2018-02-24T07:50:06.315Z,12.10
2018-02-24T07:51:06.278Z,12.10
2018-02-24T07:52:06.255Z,12.60
2018-02-24T07:53:06.220Z,12.00
2018-02-24T07:54:06.194Z,11.30
2018-02-24T07:55:06.167Z,12.70
2018-02-24T07:56:06.129Z,11.90
2018-02-24T07:57:06.104Z,11.70
2018-02-24T07:58:06.091Z,11.40
2018-02-24T07:59:06.037Z,11.10
2018-02-24T08:00:06.007Z,10.90
2018-02-24T08:01:05.979Z,11.00
2018-02-24T08:02:05.949Z,11.80
2018-02-24T08:03:05.918Z,10.90
2018-02-24T08:04:05.890Z,11.50
2018-02-24T08:05:05.860Z,10.40
2018-02-24T08:06:05.829Z,11.20
2018-02-24T08:07:05.800Z,11.70
2018-02-24T08:08:05.765Z,11.30
2018-02-24T08:09:05.737Z,11.00
2018-02-24T08:10:05.710Z,10.80
2018-02-24T08:11:05.685Z,11.70
2018-02-24T08:12:05.653Z,11.10
2018-02-24T08:13:05.619Z,11.10
2018-02-24T08:14:05.589Z,10.90
2018-02-24T08:15:05.559Z,11.90
2018-02-24T08:16:05.528Z,10.60
2018-02-24T08:17:05.498Z,10.60
2018-02-24T08:18:05.469Z,11.20
2018-02-24T08:19:05.436Z,10.50
2018-02-24T08:20:05.408Z,10.30
2018-02-24T08:21:05.377Z,9.90
2018-02-24T08:22:05.365Z,9.40
2018-02-24T08:23:05.321Z,10.60
2018-02-24T08:24:05.290Z,10.30
2018-02-24T08:25:05.262Z,10.20
2018-02-24T08:26:05.229Z,11.00
2018-02-24T08:27:05.199Z,11.30
2018-02-24T08:28:05.168Z,10.00
2018-02-24T08:29:05.136Z,9.80
2018-02-24T08:30:05.111Z,9.60
2018-02-24T08:31:05.082Z,10.50
2018-02-24T08:32:05.056Z,9.00
2018-02-24T08:33:05.020Z,10.70
2018-02-24T08:34:04.992Z,9.60
2018-02-24T08:35:04.959Z,10.20
2018-02-24T08:36:04.932Z,9.60
2018-02-24T08:37:04.906Z,9.60
2018-02-24T08:38:04.871Z,9.30
2018-02-24T08:39:04.839Z,10.10
2018-02-24T08:40:04.867Z,9.20
2018-02-24T08:41:04.783Z,9.40
2018-02-24T08:42:04.752Z,9.70
2018-02-24T08:43:04.728Z,9.00
2018-02-24T08:44:04.697Z,9.10
2018-02-24T08:45:04.662Z,9.30
2018-02-24T08:46:04.635Z,8.50
2018-02-24T08:47:04.606Z,8.20
2018-02-24T08:48:04.582Z,8.90
2018-02-24T08:49:04.548Z,9.90
2018-02-24T08:50:04.516Z,9.40
2018-02-24T08:51:04.485Z,10.10
2018-02-24T08:52:04.458Z,8.90
2018-02-24T08:53:04.424Z,8.40
2018-02-24T08:54:04.398Z,9.60
2018-02-24T08:55:04.369Z,7.80
2018-02-24T08:56:04.339Z,9.30
2018-02-24T08:57:04.312Z,8.90
2018-02-24T08:58:04.281Z,9.60
2018-02-24T08:59:04.251Z,9.30
2018-02-24T09:00:04.223Z,8.60
2018-02-24T09:01:04.193Z,8.70
2018-02-24T09:02:04.162Z,8.90
2018-02-24T09:03:04.133Z,9.10
2018-02-24T09:04:04.105Z,8.90
2018-02-24T09:05:04.074Z,9.00
2018-02-24T09:06:04.052Z,8.70
2018-02-24T09:07:04.012Z,8.60
2018-02-24T09:08:03.988Z,8.60
2018-02-24T09:09:03.953Z,8.50
2018-02-24T09:10:03.928Z,8.50
2018-02-24T09:11:03.899Z,10.10
2018-02-24T09:12:03.872Z,9.10
2018-02-24T09:13:03.896Z,11.30
2018-02-24T09:14:03.812Z,13.30
2018-02-24T09:15:03.784Z,9.70
2018-02-24T09:16:03.762Z,9.60
2018-02-24T09:17:03.727Z,8.40
2018-02-24T09:18:03.694Z,8.10
2018-02-24T09:19:03.698Z,9.40
2018-02-24T09:20:03.637Z,8.50
2018-02-24T09:21:03.608Z,7.80
2018-02-24T09:22:03.579Z,8.00
2018-02-24T09:23:03.552Z,7.60
2018-02-24T09:24:03.579Z,8.60
2018-02-24T09:25:03.493Z,8.00
2018-02-24T09:26:03.468Z,8.60
2018-02-24T09:27:03.442Z,10.50
2018-02-24T09:28:03.421Z,9.80
2018-02-24T09:29:03.380Z,8.80
2018-02-24T09:30:03.351Z,8.50
2018-02-24T09:31:03.323Z,8.10
2018-02-24T09:32:03.295Z,8.50
2018-02-24T09:33:03.261Z,10.00
2018-02-24T09:34:03.231Z,9.40
2018-02-24T09:35:03.206Z,8.60
2018-02-24T09:36:03.226Z,7.80
2018-02-24T09:37:03.146Z,8.40
2018-02-24T09:38:03.119Z,8.30
2018-02-24T09:39:03.092Z,9.20
2018-02-24T09:40:03.065Z,9.10
2018-02-24T09:41:03.036Z,9.90
2018-02-24T09:42:03.014Z,9.50
2018-02-24T09:43:02.980Z,7.40
2018-02-24T09:44:02.976Z,8.40
2018-02-24T09:45:02.923Z,8.60
2018-02-24T09:46:02.902Z,9.00
2018-02-24T09:47:02.871Z,9.80
2018-02-24T09:48:02.845Z,8.40
2018-02-24T09:49:02.817Z,9.00
2018-02-24T09:50:02.784Z,8.00
2018-02-24T09:51:02.769Z,8.00
2018-02-24T09:52:02.738Z,8.10
2018-02-24T09:53:02.717Z,8.20
2018-02-24T09:54:02.686Z,8.00
2018-02-24T09:55:02.660Z,8.30
2018-02-24T09:56:02.629Z,8.70
2018-02-24T09:57:02.606Z,8.00
2018-02-24T09:58:02.605Z,7.30
2018-02-24T09:59:02.559Z,7.30
2018-02-24T10:00:02.535Z,7.00
2018-02-24T10:01:02.508Z,8.40
2018-02-24T10:02:02.481Z,7.70
2018-02-24T10:03:02.467Z,8.80
2018-02-24T10:04:02.430Z,7.70
2018-02-24T10:05:02.413Z,7.60
2018-02-24T10:06:02.391Z,7.30
2018-02-24T10:07:02.362Z,6.40
2018-02-24T10:08:02.338Z,6.70
2018-02-24T10:09:02.314Z,6.70
2018-02-24T10:10:02.289Z,7.60
2018-02-24T10:11:02.271Z,6.40
2018-02-24T10:12:02.246Z,6.90
2018-02-24T10:13:02.219Z,6.80
2018-02-24T10:14:02.196Z,6.60
2018-02-24T10:15:02.212Z,6.20
2018-02-24T10:16:02.149Z,6.60
2018-02-24T10:17:02.122Z,6.40
2018-02-24T10:18:02.103Z,6.80
2018-02-24T10:19:02.074Z,6.10
2018-02-24T10:20:02.058Z,6.50
2018-02-24T10:21:02.028Z,6.50
2018-02-24T10:22:02.011Z,6.20
2018-02-24T10:23:01.993Z,6.20
2018-02-24T10:24:01.965Z,6.50
2018-02-24T10:25:01.944Z,6.40
2018-02-24T10:26:01.921Z,5.40
2018-02-24T10:27:01.902Z,6.30
2018-02-24T10:28:01.875Z,5.90
2018-02-24T10:29:01.852Z,5.70
2018-02-24T10:30:01.835Z,5.60
2018-02-24T10:31:01.803Z,6.40
2018-02-24T10:32:01.791Z,5.50
2018-02-24T10:33:01.765Z,5.70
2018-02-24T10:34:01.807Z,5.10
2018-02-24T10:35:01.721Z,5.40
2018-02-24T10:36:01.700Z,5.50
2018-02-24T10:37:01.678Z,5.60
2018-02-24T10:38:01.657Z,5.60
2018-02-24T10:39:01.640Z,5.90
2018-02-24T10:40:01.625Z,5.60
2018-02-24T10:41:01.602Z,5.30
2018-02-24T10:42:01.607Z,5.30
2018-02-24T10:43:01.554Z,5.80
2018-02-24T10:44:01.533Z,5.50
2018-02-24T10:45:01.512Z,5.30
2018-02-24T10:46:01.493Z,5.40
2018-02-24T10:47:01.473Z,5.90
2018-02-24T10:48:01.453Z,5.60
2018-02-24T10:49:01.433Z,5.80
2018-02-24T10:50:01.410Z,5.10
2018-02-24T10:51:01.397Z,5.50
2018-02-24T10:52:01.376Z,5.20
2018-02-24T10:53:01.395Z,5.90
2018-02-24T10:54:01.336Z,5.20
2018-02-24T10:55:01.318Z,5.50
2018-02-24T10:56:01.299Z,5.70
2018-02-24T10:57:01.277Z,5.80
2018-02-24T10:58:01.291Z,5.50
2018-02-24T10:59:01.241Z,4.80
2018-02-24T11:00:01.227Z,4.70
2018-02-24T11:01:01.203Z,4.30
2018-02-24T11:02:01.184Z,4.40
2018-02-24T11:03:01.165Z,4.70
2018-02-24T11:04:01.145Z,4.80
2018-02-24T11:05:01.123Z,4.30
2018-02-24T11:06:01.107Z,5.00
2018-02-24T11:07:01.086Z,4.70
2018-02-24T11:08:01.070Z,4.60
2018-02-24T11:09:01.044Z,4.30
2018-02-24T11:10:01.023Z,4.90
2018-02-24T11:11:01.004Z,4.80
2018-02-24T11:12:00.976Z,4.90
2018-02-24T11:13:00.962Z,3.60
2018-02-24T11:14:00.943Z,4.70
2018-02-24T11:15:00.919Z,4.20
2018-02-24T11:16:00.898Z,4.40
2018-02-24T11:17:00.905Z,4.20
2018-02-24T11:18:00.855Z,4.20
2018-02-24T11:19:00.835Z,4.10
2018-02-24T11:20:00.816Z,4.10
2018-02-24T11:21:00.803Z,3.90
2018-02-24T11:22:00.778Z,4.30
2018-02-24T11:23:00.804Z,3.90
2018-02-24T11:24:01.006Z,3.80
2018-02-24T11:25:00.847Z,3.90
2018-02-24T11:26:00.725Z,3.60
2018-02-24T11:27:00.685Z,3.50
2018-02-24T11:28:00.721Z,4.10
2018-02-24T11:29:00.786Z,4.10
2018-02-24T11:30:00.679Z,3.20
2018-02-24T11:31:00.586Z,4.00
2018-02-24T11:32:00.815Z,3.90
2018-02-24T11:33:00.568Z,4.60
2018-02-24T11:34:00.510Z,3.70
2018-02-24T11:35:00.640Z,4.00
2018-02-24T11:36:00.588Z,3.70
2018-02-24T11:37:00.458Z,4.10
2018-02-24T11:38:00.435Z,4.30
2018-02-24T11:39:00.425Z,4.10
2018-02-24T11:40:00.373Z,4.00
2018-02-24T11:41:00.408Z,3.80
2018-02-24T11:42:00.325Z,3.80
2018-02-24T11:43:00.298Z,3.60
2018-02-24T11:44:00.274Z,4.00
2018-02-24T11:45:00.287Z,3.60
2018-02-24T11:46:00.243Z,4.10
2018-02-24T11:47:00.214Z,4.50
2018-02-24T11:48:00.192Z,4.50
2018-02-24T11:49:00.179Z,4.10
2018-02-24T11:50:00.137Z,3.60
2018-02-24T11:51:00.115Z,3.60
2018-02-24T11:52:00.110Z,4.10
2018-02-24T11:53:00.079Z,3.80
2018-02-24T11:54:00.051Z,4.10
2018-02-24T11:55:00.036Z,4.10
2018-02-24T11:56:00.011Z,4.10
2018-02-24T11:56:59.975Z,3.50
2018-02-24T11:57:59.967Z,3.40
2018-02-24T11:58:59.935Z,3.70
2018-02-24T11:59:59.918Z,3.40
2018-02-24T12:00:59.882Z,3.70
2018-02-24T12:01:59.865Z,4.20
2018-02-24T12:02:59.839Z,3.60
2018-02-24T12:03:59.817Z,3.70
2018-02-24T12:04:59.798Z,4.60
2018-02-24T12:05:59.815Z,4.00
2018-02-24T12:06:59.764Z,4.30
2018-02-24T12:07:59.734Z,3.80
2018-02-24T12:08:59.733Z,4.00
2018-02-24T12:09:59.729Z,4.10
2018-02-24T12:10:59.672Z,4.20
2018-02-24T12:11:59.658Z,3.90
2018-02-24T12:12:59.632Z,4.20
2018-02-24T12:13:59.621Z,4.60
2018-02-24T12:14:59.586Z,4.00
2018-02-24T12:15:59.659Z,4.50
2018-02-24T12:16:59.547Z,4.10
2018-02-24T12:18:00.085Z,3.80
2018-02-24T12:18:59.517Z,4.50
2018-02-24T12:19:59.805Z,7.50
2018-02-24T12:20:59.456Z,5.60
2018-02-24T12:21:59.439Z,4.80
2018-02-24T12:22:59.455Z,4.70
2018-02-24T12:23:59.412Z,4.60
2018-02-24T12:24:59.406Z,4.30
2018-02-24T12:25:59.350Z,4.60
2018-02-24T12:26:59.330Z,4.30
2018-02-24T12:27:59.303Z,4.80
2018-02-24T12:28:59.282Z,4.10
2018-02-24T12:29:59.263Z,4.30
2018-02-24T12:30:59.249Z,4.50
2018-02-24T12:31:59.217Z,3.90
2018-02-24T12:32:59.195Z,4.00
2018-02-24T12:33:59.194Z,4.20
2018-02-24T12:34:59.151Z,4.60
2018-02-24T12:35:59.164Z,5.50
2018-02-24T12:36:59.133Z,8.10
2018-02-24T12:37:59.106Z,5.40
2018-02-24T12:38:59.094Z,5.60
2018-02-24T12:39:59.052Z,5.10
2018-02-24T12:40:59.024Z,5.80
2018-02-24T12:41:59.056Z,5.50
2018-02-24T12:42:59.007Z,5.00
2018-02-24T12:43:58.995Z,5.60
2018-02-24T12:44:58.940Z,5.00
2018-02-24T12:45:58.955Z,4.70
2018-02-24T12:46:58.904Z,5.30
2018-02-24T12:47:58.890Z,4.60
2018-02-24T12:48:58.866Z,4.90
2018-02-24T12:49:58.847Z,4.70
2018-02-24T12:50:58.864Z,4.00
2018-02-24T12:51:58.810Z,4.40
2018-02-24T12:52:58.792Z,4.30
2018-02-24T12:53:58.773Z,4.30
2018-02-24T12:54:58.754Z,4.70
2018-02-24T12:55:58.738Z,4.10
2018-02-24T12:56:58.715Z,4.90
2018-02-24T12:57:58.717Z,5.00
2018-02-24T12:58:58.678Z,4.70
2018-02-24T12:59:58.688Z,4.10
2018-02-24T13:00:58.638Z,5.00